Time;durP1;ratioP1;P1;durP2;ratioP2;P2;SDS_P1;SDS_P2;PMS_P1;PMS_P2;Temp;Humidity;BMP_temperature;BMP_pressure;BME280_temperature;BME280_humidity;BME280_pressure;Samples;Min_cycle;Max_cycle;Signal;HPM_P1;HPM_P2
2023/04/15 00:00:19;;;;;;;;;;;21.40;53.80;;;;;;4748812;55;20080;-27
2023/04/15 00:05:20;;;;;;;;;;;21.40;53.80;;;;;;4789593;55;20067;-28
2023/04/15 00:10:21;;;;;;;;;;;21.40;53.80;;;;;;4774157;55;20116;-28
2023/04/15 00:15:22;;;;;;;;;;;21.40;53.80;;;;;;4771737;55;20267;-28
2023/04/15 00:20:22;;;;;;;;;;;21.40;53.80;;;;;;4763300;55;20310;-29
2023/04/15 00:25:23;;;;;;;;;;;21.40;53.80;;;;;;4781987;55;20112;-28
2023/04/15 00:30:25;;;;;;;;;;;21.40;53.80;;;;;;4799216;55;20112;-29
2023/04/15 00:35:26;;;;;;;;;;;21.40;54.40;;;;;;4745956;55;20307;-30
2023/04/15 00:40:26;;;;;;;;;;;21.40;53.80;;;;;;4832036;55;20199;-29
2023/04/15 00:45:27;;;;;;;;;;;21.40;53.80;;;;;;4762000;55;20303;-29
2023/04/15 00:50:28;;;;;;;;;;;21.40;53.80;;;;;;4836821;55;20052;-30
2023/04/15 00:55:28;;;;;;;;;;;21.40;54.50;;;;;;4806834;55;20322;-32
2023/04/15 01:00:30;;;;;;;;;;;21.40;53.70;;;;;;4746288;58;20116;-26
2023/04/15 01:05:30;;;;;;;;;;;21.40;53.70;;;;;;4745679;55;20297;-30
2023/04/15 01:10:32;;;;;;;;;;;21.40;53.70;;;;;;4772191;55;20073;-28
2023/04/15 01:15:34;;;;;;;;;;;21.40;53.70;;;;;;4774850;55;20120;-30
2023/04/15 01:20:35;;;;;;;;;;;21.40;53.70;;;;;;4873648;55;20056;-30
2023/04/15 01:25:36;;;;;;;;;;;21.40;53.70;;;;;;4747165;55;20139;-27
2023/04/15 01:30:36;;;;;;;;;;;21.40;53.70;;;;;;4805799;55;20080;-28
2023/04/15 01:35:37;;;;;;;;;;;21.40;53.70;;;;;;4754214;55;20354;-28
2023/04/15 01:40:39;;;;;;;;;;;21.40;53.70;;;;;;4841972;55;20105;-31
2023/04/15 01:45:40;;;;;;;;;;;21.40;53.60;;;;;;4798139;55;20350;-27
2023/04/15 01:50:42;;;;;;;;;;;21.40;53.60;;;;;;4815994;55;20337;-28
2023/04/15 01:55:42;;;;;;;;;;;21.40;53.60;;;;;;4768843;55;20291;-27
2023/04/15 02:00:43;;;;;;;;;;;21.40;54.20;;;;;;4773905;55;20057;-30
2023/04/15 02:05:44;;;;;;;;;;;21.40;53.60;;;;;;4790808;55;20362;-32
2023/04/15 02:10:45;;;;;;;;;;;21.40;53.50;;;;;;4761635;55;20322;-29
2023/04/15 02:15:49;;;;;;;;;;;21.30;53.50;;;;;;4926339;55;20302;-32
2023/04/15 02:20:51;;;;;;;;;;;21.40;53.50;;;;;;4775497;55;20275;-28
2023/04/15 02:25:51;;;;;;;;;;;21.30;53.40;;;;;;4877773;55;20109;-28
2023/04/15 02:30:53;;;;;;;;;;;21.40;53.50;;;;;;4787593;55;20096;-27
2023/04/15 02:35:54;;;;;;;;;;;21.40;53.50;;;;;;4745925;56;20304;-28
2023/04/15 02:40:55;;;;;;;;;;;21.40;53.40;;;;;;4896074;55;20076;-28
2023/04/15 02:45:56;;;;;;;;;;;21.30;53.50;;;;;;4776306;55;20362;-29
2023/04/15 02:51:31;;;;;;;;;;;21.40;53.40;;;;;;4786799;55;20129;-32
2023/04/15 02:56:31;;;;;;;;;;;21.40;53.40;;;;;;4762911;55;20599;-30
2023/04/15 03:01:32;;;;;;;;;;;21.40;53.40;;;;;;4773790;55;20112;-29
2023/04/15 03:06:33;;;;;;;;;;;21.40;53.30;;;;;;4754979;55;20355;-29
2023/04/15 03:11:35;;;;;;;;;;;21.40;53.40;;;;;;4751071;55;20291;-28
2023/04/15 03:16:36;;;;;;;;;;;21.40;53.30;;;;;;4746804;58;20334;-28
2023/04/15 03:21:36;;;;;;;;;;;21.40;53.30;;;;;;4774187;55;20121;-27
2023/04/15 03:26:37;;;;;;;;;;;21.40;53.40;;;;;;4851005;55;20068;-31
2023/04/15 03:31:38;;;;;;;;;;;21.30;53.30;;;;;;4843818;55;20141;-29
2023/04/15 03:36:38;;;;;;;;;;;21.30;53.20;;;;;;4783772;54;20069;-30
2023/04/15 03:41:39;;;;;;;;;;;21.30;53.90;;;;;;4777320;55;20327;-28
2023/04/15 03:46:40;;;;;;;;;;;21.40;53.40;;;;;;4746371;58;20124;-29
2023/04/15 03:51:40;;;;;;;;;;;21.40;54.10;;;;;;4754730;55;20351;-31
2023/04/15 03:56:41;;;;;;;;;;;21.30;53.40;;;;;;4746483;58;20115;-31
2023/04/15 04:01:42;;;;;;;;;;;21.30;53.40;;;;;;4768372;55;20330;-28
2023/04/15 04:06:42;;;;;;;;;;;21.30;53.40;;;;;;4766159;55;20124;-28
2023/04/15 04:11:44;;;;;;;;;;;21.30;53.40;;;;;;4746021;58;20069;-29
2023/04/15 04:16:45;;;;;;;;;;;21.30;53.40;;;;;;4858785;55;20417;-28
2023/04/15 04:21:46;;;;;;;;;;;21.30;53.40;;;;;;4757560;55;20104;-27
2023/04/15 04:26:47;;;;;;;;;;;21.30;53.40;;;;;;4756652;55;20061;-29
2023/04/15 04:31:49;;;;;;;;;;;21.30;53.40;;;;;;4793283;55;20321;-26
2023/04/15 04:36:49;;;;;;;;;;;21.30;53.40;;;;;;4745077;59;20291;-29
2023/04/15 04:41:51;;;;;;;;;;;21.30;53.30;;;;;;4883492;55;20108;-27
2023/04/15 04:46:51;;;;;;;;;;;21.30;53.30;;;;;;4781535;55;20282;-24
2023/04/15 04:51:52;;;;;;;;;;;21.30;53.30;;;;;;4811719;55;20073;-29
2023/04/15 04:56:53;;;;;;;;;;;21.30;53.10;;;;;;4755795;55;20165;-26
2023/04/15 05:01:53;;;;;;;;;;;21.30;53.10;;;;;;4790200;55;20081;-29
2023/04/15 05:06:54;;;;;;;;;;;21.30;53.10;;;;;;4774547;55;20112;-26
2023/04/15 05:11:55;;;;;;;;;;;21.30;53.00;;;;;;4825868;55;20064;-30
2023/04/15 05:16:56;;;;;;;;;;;21.30;53.00;;;;;;4769656;55;20291;-28
2023/04/15 05:21:57;;;;;;;;;;;21.30;52.90;;;;;;4772231;55;20072;-29
2023/04/15 05:26:57;;;;;;;;;;;21.30;52.90;;;;;;4758659;55;20088;-28
2023/04/15 05:31:58;;;;;;;;;;;21.30;52.90;;;;;;4801102;55;20117;-30
2023/04/15 05:36:59;;;;;;;;;;;21.30;53.50;;;;;;4747096;55;20943;-28
2023/04/15 05:42:00;;;;;;;;;;;21.30;52.80;;;;;;4756374;55;20409;-29
2023/04/15 05:47:02;;;;;;;;;;;21.30;52.70;;;;;;4765941;55;20068;-29
2023/04/15 05:52:03;;;;;;;;;;;21.30;52.70;;;;;;4824298;55;20608;-27
2023/04/15 05:57:03;;;;;;;;;;;21.30;52.70;;;;;;4760481;55;20434;-27
2023/04/15 06:02:05;;;;;;;;;;;21.30;52.60;;;;;;4746311;58;20263;-27
2023/04/15 06:07:05;;;;;;;;;;;21.30;52.50;;;;;;4848658;55;20926;-30
2023/04/15 06:12:10;;;;;;;;;;;21.30;52.50;;;;;;4787878;55;20228;-31
2023/04/15 06:17:13;;;;;;;;;;;21.30;52.50;;;;;;4795260;55;20251;-30
2023/04/15 06:22:14;;;;;;;;;;;21.30;52.40;;;;;;4792281;55;20279;-28
2023/04/15 06:27:15;;;;;;;;;;;21.30;52.40;;;;;;4830391;55;20165;-29
2023/04/15 06:32:16;;;;;;;;;;;21.30;52.40;;;;;;4794704;55;20120;-32
2023/04/15 06:37:16;;;;;;;;;;;21.30;52.30;;;;;;4787041;55;20156;-31
2023/04/15 06:42:17;;;;;;;;;;;21.30;52.30;;;;;;4756309;55;20116;-28
2023/04/15 06:47:18;;;;;;;;;;;21.30;52.20;;;;;;5023781;55;20473;-31
2023/04/15 06:52:19;;;;;;;;;;;21.30;52.20;;;;;;4746945;58;20362;-33
2023/04/15 06:57:20;;;;;;;;;;;21.30;52.20;;;;;;4906096;55;20119;-27
2023/04/15 07:02:21;;;;;;;;;;;21.30;52.20;;;;;;4747204;55;20385;-28
2023/04/15 07:07:21;;;;;;;;;;;21.30;52.20;;;;;;4809902;55;20117;-29
2023/04/15 07:12:22;;;;;;;;;;;21.30;52.20;;;;;;4746382;58;20084;-28
2023/04/15 07:17:22;;;;;;;;;;;21.30;52.10;;;;;;4865306;55;20076;-29
2023/04/15 07:22:23;;;;;;;;;;;21.30;52.20;;;;;;4780860;55;20172;-30
2023/04/15 07:27:24;;;;;;;;;;;21.30;52.10;;;;;;4766176;55;20402;-29
2023/04/15 07:32:25;;;;;;;;;;;21.30;52.10;;;;;;4825656;55;20834;-30
2023/04/15 07:37:27;;;;;;;;;;;21.30;52.10;;;;;;4792201;55;20081;-26
2023/04/15 07:42:28;;;;;;;;;;;21.30;52.10;;;;;;4768505;55;20487;-28
2023/04/15 07:47:28;;;;;;;;;;;21.30;52.10;;;;;;4758571;55;20072;-31
2023/04/15 07:52:29;;;;;;;;;;;21.30;52.20;;;;;;4767798;55;20068;-29
2023/04/15 07:57:30;;;;;;;;;;;21.30;52.10;;;;;;4826258;55;20112;-32
2023/04/15 08:02:31;;;;;;;;;;;21.30;52.20;;;;;;4757917;55;20061;-29
2023/04/15 08:07:32;;;;;;;;;;;21.30;52.20;;;;;;4929208;55;20315;-31
2023/04/15 08:12:32;;;;;;;;;;;21.30;52.20;;;;;;4817924;55;20076;-31
2023/04/15 08:17:33;;;;;;;;;;;21.30;52.20;;;;;;4749477;55;20056;-31
2023/04/15 08:22:34;;;;;;;;;;;21.30;52.20;;;;;;4766266;55;20319;-27
2023/04/15 08:27:35;;;;;;;;;;;21.30;52.20;;;;;;4761031;55;20116;-28
2023/04/15 08:32:36;;;;;;;;;;;21.30;52.20;;;;;;4780203;55;20060;-30
2023/04/15 08:37:38;;;;;;;;;;;21.30;52.20;;;;;;4837558;55;20147;-32
2023/04/15 08:42:44;;;;;;;;;;;21.30;52.30;;;;;;4746119;58;20303;-28
2023/04/15 08:47:51;;;;;;;;;;;21.30;52.20;;;;;;4808028;55;20358;-30
2023/04/15 08:52:54;;;;;;;;;;;21.30;52.20;;;;;;4753293;55;20255;-27
2023/04/15 08:57:54;;;;;;;;;;;21.30;52.20;;;;;;4746372;58;20088;-29
2023/04/15 09:02:55;;;;;;;;;;;21.30;52.30;;;;;;4746318;58;20068;-28
2023/04/15 09:07:56;;;;;;;;;;;21.30;52.30;;;;;;4803486;55;20105;-29
2023/04/15 09:12:57;;;;;;;;;;;21.30;52.30;;;;;;4784445;55;20072;-28
2023/04/15 09:17:57;;;;;;;;;;;21.30;52.30;;;;;;4746363;58;20072;-29
2023/04/15 09:22:58;;;;;;;;;;;21.30;52.30;;;;;;4745746;58;20048;-27
2023/04/15 09:28:00;;;;;;;;;;;21.30;52.90;;;;;;4857828;55;20430;-30
2023/04/15 09:33:01;;;;;;;;;;;21.30;52.40;;;;;;4746330;58;20297;-29
2023/04/15 09:38:06;;;;;;;;;;;21.30;52.40;;;;;;4759468;55;20156;-30
2023/04/15 09:43:09;;;;;;;;;;;21.30;52.50;;;;;;4803972;55;20230;-29
2023/04/15 09:48:17;;;;;;;;;;;21.30;52.60;;;;;;4746732;58;20331;-28
2023/04/15 09:53:19;;;;;;;;;;;21.30;52.50;;;;;;4755366;55;20056;-30
2023/04/15 09:58:24;;;;;;;;;;;21.30;52.60;;;;;;4773810;55;20263;-29
2023/04/15 10:03:28;;;;;;;;;;;21.30;52.60;;;;;;4768874;55;20125;-29
2023/04/15 10:08:30;;;;;;;;;;;21.30;52.60;;;;;;4801246;55;20310;-33
2023/04/15 10:13:36;;;;;;;;;;;21.30;52.60;;;;;;4836718;55;20053;-30
2023/04/15 10:18:42;;;;;;;;;;;21.30;52.60;;;;;;4746323;58;20389;-29
2023/04/15 10:23:43;;;;;;;;;;;21.30;52.70;;;;;;4759032;55;20065;-29
2023/04/15 10:28:43;;;;;;;;;;;21.30;52.70;;;;;;4822627;55;20080;-31
2023/04/15 10:33:45;;;;;;;;;;;21.30;52.80;;;;;;4798655;55;20306;-31
2023/04/15 10:38:46;;;;;;;;;;;21.30;52.70;;;;;;4775059;55;20065;-29
2023/04/15 10:43:48;;;;;;;;;;;21.30;52.80;;;;;;4764090;55;20452;-31
2023/04/15 10:48:50;;;;;;;;;;;21.30;52.70;;;;;;4746593;58;20278;-29
2023/04/15 10:53:55;;;;;;;;;;;21.30;52.80;;;;;;4788604;55;20359;-30
2023/04/15 10:58:57;;;;;;;;;;;21.30;52.80;;;;;;4772590;55;20116;-28
2023/04/15 11:03:59;;;;;;;;;;;21.30;52.90;;;;;;4857329;55;20068;-30
2023/04/15 11:09:04;;;;;;;;;;;21.30;52.80;;;;;;4820407;55;20072;-28
2023/04/15 11:14:13;;;;;;;;;;;21.30;52.70;;;;;;4813672;55;20322;-28
2023/04/15 11:19:14;;;;;;;;;;;21.30;52.80;;;;;;4843040;55;20071;-30
2023/04/15 11:24:27;;;;;;;;;;;21.30;52.70;;;;;;4759257;55;20646;-28
2023/04/15 11:29:30;;;;;;;;;;;21.30;52.80;;;;;;4773259;55;20108;-28
2023/04/15 11:34:31;;;;;;;;;;;21.30;52.70;;;;;;4804286;55;20393;-29
2023/04/15 11:39:31;;;;;;;;;;;21.30;52.80;;;;;;4746526;58;20093;-29
2023/04/15 11:44:32;;;;;;;;;;;21.30;52.70;;;;;;4745375;58;20060;-26
2023/04/15 11:49:37;;;;;;;;;;;21.30;52.70;;;;;;4759068;55;20103;-29
2023/04/15 11:54:37;;;;;;;;;;;21.40;52.70;;;;;;4799589;55;20870;-29
2023/04/15 11:59:44;;;;;;;;;;;21.30;52.60;;;;;;4788656;55;20168;-31
2023/04/15 12:04:45;;;;;;;;;;;21.30;52.60;;;;;;4768727;55;20343;-28
2023/04/15 12:09:53;;;;;;;;;;;21.40;52.60;;;;;;4839316;55;20083;-30
2023/04/15 12:14:55;;;;;;;;;;;21.40;52.60;;;;;;4805497;55;20109;-30
2023/04/15 12:19:56;;;;;;;;;;;21.40;52.50;;;;;;4771737;55;20310;-29
2023/04/15 12:24:57;;;;;;;;;;;21.40;52.50;;;;;;4785851;55;20083;-30
2023/04/15 12:30:04;;;;;;;;;;;21.40;52.50;;;;;;4746138;58;20363;-29
2023/04/15 12:35:05;;;;;;;;;;;21.40;52.40;;;;;;4745606;58;20064;-26
2023/04/15 12:40:07;;;;;;;;;;;21.40;52.40;;;;;;4746278;58;20180;-31
2023/04/15 12:45:08;;;;;;;;;;;21.40;52.40;;;;;;4792478;55;20064;-28
2023/04/15 12:50:08;;;;;;;;;;;21.40;52.40;;;;;;4746087;56;20064;-29
2023/04/15 12:55:09;;;;;;;;;;;21.40;52.50;;;;;;4747784;55;20113;-28
2023/04/15 13:00:11;;;;;;;;;;;21.30;52.40;;;;;;4799718;55;20457;-30
2023/04/15 13:05:13;;;;;;;;;;;21.40;52.40;;;;;;4798174;55;20279;-29
2023/04/15 13:10:14;;;;;;;;;;;21.30;52.30;;;;;;4755715;55;20140;-27
2023/04/15 13:15:18;;;;;;;;;;;21.40;52.40;;;;;;4780200;55;20112;-29
2023/04/15 13:20:18;;;;;;;;;;;21.40;52.50;;;;;;4746562;58;20298;-31
2023/04/15 13:25:19;;;;;;;;;;;21.40;52.40;;;;;;4806473;55;20056;-29
2023/04/15 13:30:20;;;;;;;;;;;21.40;52.40;;;;;;4769882;55;20314;-28
2023/04/15 13:35:21;;;;;;;;;;;21.30;52.40;;;;;;4769375;55;20326;-28
2023/04/15 13:40:23;;;;;;;;;;;21.30;52.40;;;;;;4855278;55;20067;-29
2023/04/15 13:45:23;;;;;;;;;;;21.30;52.40;;;;;;4745717;58;20291;-23
2023/04/15 13:50:26;;;;;;;;;;;21.30;52.40;;;;;;4766760;55;20112;-31
2023/04/15 13:55:27;;;;;;;;;;;21.40;52.50;;;;;;4757427;55;20109;-30
2023/04/15 14:00:30;;;;;;;;;;;21.40;52.50;;;;;;4794407;55;20060;-28
2023/04/15 14:05:31;;;;;;;;;;;21.40;52.60;;;;;;4786755;55;20153;-28
2023/04/15 14:10:34;;;;;;;;;;;21.30;52.50;;;;;;4818084;55;20077;-27
2023/04/15 14:15:34;;;;;;;;;;;21.30;52.50;;;;;;4788550;55;20357;-28
2023/04/15 14:20:35;;;;;;;;;;;21.40;52.60;;;;;;4944779;55;20393;-29
2023/04/15 14:25:38;;;;;;;;;;;21.40;52.50;;;;;;4803288;55;20108;-31
2023/04/15 14:30:38;;;;;;;;;;;21.40;52.50;;;;;;4857851;55;20347;-31
2023/04/15 14:35:39;;;;;;;;;;;21.30;52.50;;;;;;4775565;55;20201;-30
2023/04/15 14:40:40;;;;;;;;;;;21.40;52.50;;;;;;4752827;55;20430;-28
2023/04/15 14:45:41;;;;;;;;;;;21.30;52.50;;;;;;4763331;55;20256;-29
2023/04/15 14:50:41;;;;;;;;;;;21.40;52.50;;;;;;4841747;55;20112;-28
2023/04/15 14:55:45;;;;;;;;;;;21.40;52.50;;;;;;4811589;55;20052;-28
2023/04/15 15:00:45;;;;;;;;;;;21.40;52.50;;;;;;4788450;55;20132;-31
2023/04/15 15:05:46;;;;;;;;;;;21.40;52.50;;;;;;4787594;55;20081;-30
2023/04/15 15:10:47;;;;;;;;;;;21.40;52.50;;;;;;4783949;55;20222;-28
2023/04/15 15:15:50;;;;;;;;;;;21.40;52.40;;;;;;4884036;55;20065;-27
2023/04/15 15:20:50;;;;;;;;;;;21.40;52.40;;;;;;4757446;55;20152;-30
2023/04/15 15:25:51;;;;;;;;;;;21.40;52.40;;;;;;4786468;55;20088;-31
2023/04/15 15:30:52;;;;;;;;;;;21.40;52.40;;;;;;4820426;55;20184;-28
2023/04/15 15:35:52;;;;;;;;;;;21.40;52.40;;;;;;4784572;55;20327;-31
2023/04/15 15:40:53;;;;;;;;;;;21.40;52.30;;;;;;4764790;55;20112;-26
2023/04/15 15:45:54;;;;;;;;;;;21.40;52.90;;;;;;4745500;58;20072;-27
2023/04/15 15:50:55;;;;;;;;;;;21.40;52.30;;;;;;4843981;55;20366;-26
2023/04/15 15:55:58;;;;;;;;;;;21.40;52.30;;;;;;4773068;55;20073;-30
2023/04/15 16:00:59;;;;;;;;;;;21.40;52.30;;;;;;4746365;58;20095;-28
2023/04/15 16:06:00;;;;;;;;;;;21.30;52.30;;;;;;4792940;55;20481;-30
2023/04/15 16:11:00;;;;;;;;;;;21.40;52.20;;;;;;4782492;55;20140;-31
2023/04/15 16:16:01;;;;;;;;;;;21.40;52.30;;;;;;4772380;55;20129;-31
2023/04/15 16:21:02;;;;;;;;;;;21.40;52.20;;;;;;4916139;55;20303;-31
2023/04/15 16:26:02;;;;;;;;;;;21.40;52.20;;;;;;4745354;58;20084;-29
2023/04/15 16:31:03;;;;;;;;;;;21.40;52.20;;;;;;4794209;55;20319;-28
2023/04/15 16:36:04;;;;;;;;;;;21.40;52.20;;;;;;4745482;58;20056;-27
2023/04/15 16:41:04;;;;;;;;;;;21.40;52.20;;;;;;4779592;55;20061;-28
2023/04/15 16:46:05;;;;;;;;;;;21.40;52.20;;;;;;4745514;58;20221;-29
2023/04/15 16:51:06;;;;;;;;;;;21.40;52.20;;;;;;4746290;58;20136;-31
2023/04/15 16:56:07;;;;;;;;;;;21.40;52.20;;;;;;4757630;55;20116;-31
2023/04/15 17:01:07;;;;;;;;;;;21.40;52.20;;;;;;4794051;55;20076;-31
2023/04/15 17:06:08;;;;;;;;;;;21.40;52.20;;;;;;4792452;55;20060;-31
2023/04/15 17:11:09;;;;;;;;;;;21.40;52.20;;;;;;4746601;58;20113;-26
2023/04/15 17:16:09;;;;;;;;;;;21.40;52.20;;;;;;4746672;58;20307;-28
2023/04/15 17:21:10;;;;;;;;;;;21.40;52.20;;;;;;4759698;55;20117;-32
2023/04/15 17:26:11;;;;;;;;;;;21.40;52.10;;;;;;4748096;55;20414;-31
2023/04/15 17:31:11;;;;;;;;;;;21.40;52.10;;;;;;4801187;55;20176;-28
2023/04/15 17:36:12;;;;;;;;;;;21.40;52.10;;;;;;4804157;54;20418;-32
2023/04/15 17:41:13;;;;;;;;;;;21.40;52.00;;;;;;4746424;58;20064;-31
2023/04/15 17:46:14;;;;;;;;;;;21.40;52.10;;;;;;4961525;55;20116;-29
2023/04/15 17:51:15;;;;;;;;;;;21.40;52.00;;;;;;4752402;55;20485;-29
2023/04/15 17:56:16;;;;;;;;;;;21.40;52.00;;;;;;4788356;55;20362;-29
2023/04/15 18:01:17;;;;;;;;;;;21.40;52.00;;;;;;4746231;58;20129;-30
2023/04/15 18:06:20;;;;;;;;;;;21.40;52.00;;;;;;4779520;55;20732;-28
2023/04/15 18:11:20;;;;;;;;;;;21.40;52.00;;;;;;4778537;55;20311;-27
2023/04/15 18:16:21;;;;;;;;;;;21.40;52.00;;;;;;4771049;55;20048;-27
2023/04/15 18:21:22;;;;;;;;;;;21.40;52.00;;;;;;4831630;55;20128;-29
2023/04/15 18:26:22;;;;;;;;;;;21.40;52.00;;;;;;4762041;55;20069;-31
2023/04/15 18:31:23;;;;;;;;;;;21.40;52.00;;;;;;4849873;55;20064;-31
2023/04/15 18:36:23;;;;;;;;;;;21.40;52.00;;;;;;4745166;57;20172;-30
2023/04/15 18:41:24;;;;;;;;;;;21.40;52.00;;;;;;4791215;55;20056;-30
2023/04/15 18:46:26;;;;;;;;;;;21.40;52.00;;;;;;4981296;55;20748;-28
2023/04/15 18:51:27;;;;;;;;;;;21.40;52.00;;;;;;4746382;58;20116;-31
2023/04/15 18:56:27;;;;;;;;;;;21.40;52.10;;;;;;4765110;55;20124;-30
2023/04/15 19:01:30;;;;;;;;;;;21.40;52.00;;;;;;4759107;55;20119;-30
2023/04/15 19:06:31;;;;;;;;;;;21.40;52.00;;;;;;4745604;58;20124;-28
2023/04/15 19:11:31;;;;;;;;;;;21.40;52.00;;;;;;4783128;55;20075;-28
2023/04/15 19:16:32;;;;;;;;;;;21.40;52.00;;;;;;4787481;55;20131;-31
2023/04/15 19:21:33;;;;;;;;;;;21.40;52.10;;;;;;4746805;55;20121;-30
2023/04/15 19:26:33;;;;;;;;;;;21.40;52.10;;;;;;4766816;55;20108;-31
2023/04/15 19:31:34;;;;;;;;;;;21.40;52.10;;;;;;4746545;58;20113;-28
2023/04/15 19:36:35;;;;;;;;;;;21.40;52.10;;;;;;4745116;58;20076;-29
2023/04/15 19:41:37;;;;;;;;;;;21.40;52.10;;;;;;4787081;55;20064;-29
2023/04/15 19:46:38;;;;;;;;;;;21.40;52.10;;;;;;4870677;55;20315;-30
2023/04/15 19:51:40;;;;;;;;;;;21.40;52.10;;;;;;4746344;55;20116;-32
2023/04/15 19:56:40;;;;;;;;;;;21.40;52.10;;;;;;4849508;55;20362;-31
2023/04/15 20:01:41;;;;;;;;;;;21.40;52.10;;;;;;4806180;55;20105;-30
2023/04/15 20:06:42;;;;;;;;;;;21.40;52.10;;;;;;4773834;55;20306;-25
2023/04/15 20:11:42;;;;;;;;;;;21.40;52.10;;;;;;4785282;55;20116;-28
2023/04/15 20:16:43;;;;;;;;;;;21.40;52.20;;;;;;4787372;55;20934;-28
2023/04/15 20:21:44;;;;;;;;;;;21.40;52.10;;;;;;4813671;55;20087;-27
2023/04/15 20:26:45;;;;;;;;;;;21.40;52.10;;;;;;4745430;58;20124;-30
2023/04/15 20:31:46;;;;;;;;;;;21.40;52.10;;;;;;4746249;58;20477;-31
2023/04/15 20:36:49;;;;;;;;;;;21.40;52.10;;;;;;4778384;55;20892;-29
2023/04/15 20:41:50;;;;;;;;;;;21.40;52.10;;;;;;4864461;55;20076;-29
2023/04/15 20:46:51;;;;;;;;;;;21.40;52.10;;;;;;4806518;55;20071;-28
2023/04/15 20:51:51;;;;;;;;;;;21.40;52.10;;;;;;4795405;55;20080;-28
2023/04/15 20:56:52;;;;;;;;;;;21.40;52.00;;;;;;4789379;55;20088;-31
2023/04/15 21:01:53;;;;;;;;;;;21.40;52.10;;;;;;4765743;55;20420;-28
2023/04/15 21:06:53;;;;;;;;;;;21.40;52.00;;;;;;4746112;55;20325;-28
2023/04/15 21:11:54;;;;;;;;;;;21.40;52.00;;;;;;4746401;58;20854;-28
2023/04/15 21:16:57;;;;;;;;;;;21.40;52.00;;;;;;4761349;55;20323;-28
2023/04/15 21:21:57;;;;;;;;;;;21.40;52.00;;;;;;4752070;55;20401;-30
2023/04/15 21:26:58;;;;;;;;;;;21.40;52.00;;;;;;4749578;55;20172;-33
2023/04/15 21:31:59;;;;;;;;;;;21.40;52.00;;;;;;4815732;55;20057;-28
2023/04/15 21:36:59;;;;;;;;;;;21.40;52.00;;;;;;4777861;55;20112;-29
2023/04/15 21:42:00;;;;;;;;;;;21.40;52.00;;;;;;4746600;58;20347;-28
2023/04/15 21:47:01;;;;;;;;;;;21.40;52.00;;;;;;4751076;55;20076;-29
2023/04/15 21:52:03;;;;;;;;;;;21.40;52.10;;;;;;4795055;55;20072;-30
2023/04/15 21:57:04;;;;;;;;;;;21.40;52.00;;;;;;4878324;55;20295;-31
2023/04/15 22:02:04;;;;;;;;;;;21.40;52.10;;;;;;4746528;58;20075;-24
2023/04/15 22:07:06;;;;;;;;;;;21.40;52.00;;;;;;4768092;55;20071;-28
2023/04/15 22:12:07;;;;;;;;;;;21.40;52.00;;;;;;4746634;58;20084;-29
2023/04/15 22:17:07;;;;;;;;;;;21.40;52.10;;;;;;4746484;58;20132;-30
2023/04/15 22:22:08;;;;;;;;;;;21.40;52.10;;;;;;4893309;55;20294;-27
2023/04/15 22:27:09;;;;;;;;;;;21.40;52.00;;;;;;4746427;58;20092;-27
2023/04/15 22:32:09;;;;;;;;;;;21.40;52.10;;;;;;4746586;55;20052;-28
2023/04/15 22:37:10;;;;;;;;;;;21.40;52.00;;;;;;4821075;55;20157;-29
2023/04/15 22:42:11;;;;;;;;;;;21.40;52.00;;;;;;4749807;55;20060;-28
2023/04/15 22:47:11;;;;;;;;;;;21.40;52.10;;;;;;4772130;55;20112;-30
2023/04/15 22:52:12;;;;;;;;;;;21.40;52.10;;;;;;4773347;55;20132;-31
2023/04/15 22:57:13;;;;;;;;;;;21.40;52.10;;;;;;4745295;58;20095;-30
2023/04/15 23:02:13;;;;;;;;;;;21.40;52.10;;;;;;4774761;55;20061;-27
2023/04/15 23:07:14;;;;;;;;;;;21.40;52.70;;;;;;4746817;55;20322;-28
2023/04/15 23:12:15;;;;;;;;;;;21.40;52.10;;;;;;4746392;58;20116;-28
2023/04/15 23:17:17;;;;;;;;;;;21.40;52.70;;;;;;4800326;55;20311;-31
2023/04/15 23:22:17;;;;;;;;;;;21.40;52.10;;;;;;4769112;55;20064;-29
2023/04/15 23:27:18;;;;;;;;;;;21.40;52.10;;;;;;4904682;55;20059;-30
2023/04/15 23:32:18;;;;;;;;;;;21.40;52.10;;;;;;4856195;55;20081;-31
2023/04/15 23:37:19;;;;;;;;;;;21.40;52.10;;;;;;4871465;55;20287;-31
2023/04/15 23:42:21;;;;;;;;;;;21.40;52.10;;;;;;4831192;55;20121;-28
2023/04/15 23:47:22;;;;;;;;;;;21.40;52.10;;;;;;4746705;58;20413;-28
2023/04/15 23:52:22;;;;;;;;;;;21.40;52.10;;;;;;4803763;55;20065;-23
2023/04/15 23:57:23;;;;;;;;;;;21.40;52.10;;;;;;4842587;55;20276;-31
